sensor_id;sensor_type;location;lat;lon;timestamp;temperature;humidity
43043;DHT22;28667;50.758;6.096;2024-03-23T00:54:38;6.30;99.90
43043;DHT22;28667;50.758;6.096;2024-03-23T00:57:04;6.30;99.90
43043;DHT22;28667;50.758;6.096;2024-03-23T00:59:29;6.30;99.90
43043;DHT22;28667;50.758;6.096;2024-03-23T01:01:56;6.30;99.90
43043;DHT22;28667;50.758;6.096;2024-03-23T01:04:22;6.30;99.90
43043;DHT22;28667;50.758;6.096;2024-03-23T01:06:48;6.20;99.90
43043;DHT22;28667;50.758;6.096;2024-03-23T01:09:14;6.20;99.90
43043;DHT22;28667;50.758;6.096;2024-03-23T01:11:40;6.20;99.90
43043;DHT22;28667;50.758;6.096;2024-03-23T01:14:06;6.20;99.90
43043;DHT22;28667;50.758;6.096;2024-03-23T01:16:32;6.20;99.90
43043;DHT22;28667;50.758;6.096;2024-03-23T01:18:57;6.10;99.90
43043;DHT22;28667;50.758;6.096;2024-03-23T01:21:23;6.10;99.90
43043;DHT22;28667;50.758;6.096;2024-03-23T01:23:49;6.10;99.90
43043;DHT22;28667;50.758;6.096;2024-03-23T01:26:15;6.10;99.90
43043;DHT22;28667;50.758;6.096;2024-03-23T01:28:40;6.10;99.90
43043;DHT22;28667;50.758;6.096;2024-03-23T01:31:06;6.10;99.90
43043;DHT22;28667;50.758;6.096;2024-03-23T01:33:32;6.00;99.90
43043;DHT22;28667;50.758;6.096;2024-03-23T01:35:58;6.00;99.90
43043;DHT22;28667;50.758;6.096;2024-03-23T01:38:23;5.90;99.90
43043;DHT22;28667;50.758;6.096;2024-03-23T01:40:49;5.80;99.90
43043;DHT22;28667;50.758;6.096;2024-03-23T01:43:15;5.70;99.90
43043;DHT22;28667;50.758;6.096;2024-03-23T01:45:41;5.50;99.90
43043;DHT22;28667;50.758;6.096;2024-03-23T01:48:06;5.40;99.90
43043;DHT22;28667;50.758;6.096;2024-03-23T01:50:33;5.20;99.90
43043;DHT22;28667;50.758;6.096;2024-03-23T01:53:02;5.20;99.90
43043;DHT22;28667;50.758;6.096;2024-03-23T01:55:28;5.10;99.90
43043;DHT22;28667;50.758;6.096;2024-03-23T01:57:56;5.00;99.90
43043;DHT22;28667;50.758;6.096;2024-03-23T02:00:22;5.00;99.90
43043;DHT22;28667;50.758;6.096;2024-03-23T02:02:48;5.00;99.90
43043;DHT22;28667;50.758;6.096;2024-03-23T02:05:14;4.90;99.90
43043;DHT22;28667;50.758;6.096;2024-03-23T02:07:41;4.90;99.90
43043;DHT22;28667;50.758;6.096;2024-03-23T02:10:09;4.90;99.90
43043;DHT22;28667;50.758;6.096;2024-03-23T02:12:36;4.80;99.90
43043;DHT22;28667;50.758;6.096;2024-03-23T02:15:02;4.80;99.90
43043;DHT22;28667;50.758;6.096;2024-03-23T02:17:30;4.80;99.90
43043;DHT22;28667;50.758;6.096;2024-03-23T02:19:56;4.80;99.90
43043;DHT22;28667;50.758;6.096;2024-03-23T02:22:22;4.80;99.90
43043;DHT22;28667;50.758;6.096;2024-03-23T02:24:48;4.90;99.90
43043;DHT22;28667;50.758;6.096;2024-03-23T02:27:13;4.90;99.90
43043;DHT22;28667;50.758;6.096;2024-03-23T02:29:39;4.90;99.90
43043;DHT22;28667;50.758;6.096;2024-03-23T02:32:05;4.90;99.90
43043;DHT22;28667;50.758;6.096;2024-03-23T02:34:31;4.90;99.90
43043;DHT22;28667;50.758;6.096;2024-03-23T02:36:57;4.90;99.90
43043;DHT22;28667;50.758;6.096;2024-03-23T02:39:23;4.90;99.90
43043;DHT22;28667;50.758;6.096;2024-03-23T02:41:48;4.90;99.90
43043;DHT22;28667;50.758;6.096;2024-03-23T02:44:14;4.80;99.90
43043;DHT22;28667;50.758;6.096;2024-03-23T02:46:40;4.80;99.90
43043;DHT22;28667;50.758;6.096;2024-03-23T02:49:06;4.80;99.90
43043;DHT22;28667;50.758;6.096;2024-03-23T02:51:32;4.80;99.90
43043;DHT22;28667;50.758;6.096;2024-03-23T02:53:58;4.80;99.90
43043;DHT22;28667;50.758;6.096;2024-03-23T02:56:23;4.80;99.90
43043;DHT22;28667;50.758;6.096;2024-03-23T02:58:49;4.80;99.90
43043;DHT22;28667;50.758;6.096;2024-03-23T03:01:15;4.90;99.90
43043;DHT22;28667;50.758;6.096;2024-03-23T03:03:41;4.90;99.90
43043;DHT22;28667;50.758;6.096;2024-03-23T03:06:06;4.90;99.90
43043;DHT22;28667;50.758;6.096;2024-03-23T03:08:32;4.90;99.90
43043;DHT22;28667;50.758;6.096;2024-03-23T03:10:58;4.90;99.90
43043;DHT22;28667;50.758;6.096;2024-03-23T03:13:24;4.90;99.90
43043;DHT22;28667;50.758;6.096;2024-03-23T03:15:49;4.90;99.90
43043;DHT22;28667;50.758;6.096;2024-03-23T03:18:15;4.90;99.90
43043;DHT22;28667;50.758;6.096;2024-03-23T03:20:41;4.90;99.90
43043;DHT22;28667;50.758;6.096;2024-03-23T03:23:07;4.90;99.90
43043;DHT22;28667;50.758;6.096;2024-03-23T03:25:33;4.90;99.90
43043;DHT22;28667;50.758;6.096;2024-03-23T03:27:59;4.90;99.90
43043;DHT22;28667;50.758;6.096;2024-03-23T03:30:25;4.90;99.90
43043;DHT22;28667;50.758;6.096;2024-03-23T03:32:53;4.90;99.90
43043;DHT22;28667;50.758;6.096;2024-03-23T03:35:19;4.90;99.90
43043;DHT22;28667;50.758;6.096;2024-03-23T03:37:45;4.90;99.90
43043;DHT22;28667;50.758;6.096;2024-03-23T03:40:11;4.90;99.90
43043;DHT22;28667;50.758;6.096;2024-03-23T03:42:37;4.90;99.90
43043;DHT22;28667;50.758;6.096;2024-03-23T03:45:06;4.90;99.90
43043;DHT22;28667;50.758;6.096;2024-03-23T03:47:32;4.80;99.90
43043;DHT22;28667;50.758;6.096;2024-03-23T03:49:58;4.80;99.90
43043;DHT22;28667;50.758;6.096;2024-03-23T03:52:23;4.80;99.90
43043;DHT22;28667;50.758;6.096;2024-03-23T03:54:49;4.80;99.90
43043;DHT22;28667;50.758;6.096;2024-03-23T03:57:15;4.80;99.90
43043;DHT22;28667;50.758;6.096;2024-03-23T03:59:48;4.80;99.90
43043;DHT22;28667;50.758;6.096;2024-03-23T04:02:14;4.80;99.90
43043;DHT22;28667;50.758;6.096;2024-03-23T04:04:39;4.80;99.90
43043;DHT22;28667;50.758;6.096;2024-03-23T04:07:05;4.80;99.90
43043;DHT22;28667;50.758;6.096;2024-03-23T04:09:31;4.80;99.90
43043;DHT22;28667;50.758;6.096;2024-03-23T04:11:57;4.70;99.90
43043;DHT22;28667;50.758;6.096;2024-03-23T04:14:22;4.80;99.90
43043;DHT22;28667;50.758;6.096;2024-03-23T04:16:48;4.80;99.90
43043;DHT22;28667;50.758;6.096;2024-03-23T04:19:14;4.70;99.90
43043;DHT22;28667;50.758;6.096;2024-03-23T04:21:40;4.70;99.90
43043;DHT22;28667;50.758;6.096;2024-03-23T04:24:06;4.70;99.90
43043;DHT22;28667;50.758;6.096;2024-03-23T04:26:41;4.60;99.90
43043;DHT22;28667;50.758;6.096;2024-03-23T04:29:07;4.70;99.90
43043;DHT22;28667;50.758;6.096;2024-03-23T04:31:32;4.60;99.90
43043;DHT22;28667;50.758;6.096;2024-03-23T04:34:04;4.60;99.90
43043;DHT22;28667;50.758;6.096;2024-03-23T04:36:29;4.60;99.90
43043;DHT22;28667;50.758;6.096;2024-03-23T04:41:26;4.50;99.90
43043;DHT22;28667;50.758;6.096;2024-03-23T04:43:52;4.60;99.90
43043;DHT22;28667;50.758;6.096;2024-03-23T04:46:18;4.50;99.90
43043;DHT22;28667;50.758;6.096;2024-03-23T04:48:44;4.50;99.90
43043;DHT22;28667;50.758;6.096;2024-03-23T04:51:10;4.50;99.90
43043;DHT22;28667;50.758;6.096;2024-03-23T04:53:39;4.50;99.90
43043;DHT22;28667;50.758;6.096;2024-03-23T04:56:05;4.50;99.90
43043;DHT22;28667;50.758;6.096;2024-03-23T04:58:30;4.50;99.90
43043;DHT22;28667;50.758;6.096;2024-03-23T05:00:56;4.50;99.90
43043;DHT22;28667;50.758;6.096;2024-03-23T05:03:23;4.50;99.90
43043;DHT22;28667;50.758;6.096;2024-03-23T05:05:49;4.50;99.90
43043;DHT22;28667;50.758;6.096;2024-03-23T05:08:16;4.50;99.90
43043;DHT22;28667;50.758;6.096;2024-03-23T05:10:42;4.50;99.90
43043;DHT22;28667;50.758;6.096;2024-03-23T05:13:08;4.50;99.90
43043;DHT22;28667;50.758;6.096;2024-03-23T05:15:34;4.40;99.90
43043;DHT22;28667;50.758;6.096;2024-03-23T05:18:00;4.50;99.90
43043;DHT22;28667;50.758;6.096;2024-03-23T05:20:26;4.40;99.90
43043;DHT22;28667;50.758;6.096;2024-03-23T05:22:52;4.40;99.90
43043;DHT22;28667;50.758;6.096;2024-03-23T05:25:17;4.40;99.90
43043;DHT22;28667;50.758;6.096;2024-03-23T05:27:43;4.40;99.90
43043;DHT22;28667;50.758;6.096;2024-03-23T05:30:09;4.40;99.90
43043;DHT22;28667;50.758;6.096;2024-03-23T05:32:36;4.40;99.90
43043;DHT22;28667;50.758;6.096;2024-03-23T05:35:02;4.40;99.90
43043;DHT22;28667;50.758;6.096;2024-03-23T05:37:28;4.40;99.90
43043;DHT22;28667;50.758;6.096;2024-03-23T05:39:53;4.40;99.90
43043;DHT22;28667;50.758;6.096;2024-03-23T05:42:19;4.40;99.90
43043;DHT22;28667;50.758;6.096;2024-03-23T05:44:45;4.40;99.90
43043;DHT22;28667;50.758;6.096;2024-03-23T05:47:11;4.40;99.90
43043;DHT22;28667;50.758;6.096;2024-03-23T05:49:42;4.30;99.90
43043;DHT22;28667;50.758;6.096;2024-03-23T05:52:10;4.30;99.90
43043;DHT22;28667;50.758;6.096;2024-03-23T05:54:36;4.30;99.90
43043;DHT22;28667;50.758;6.096;2024-03-23T05:57:03;4.30;99.90
43043;DHT22;28667;50.758;6.096;2024-03-23T05:59:29;4.30;99.90
43043;DHT22;28667;50.758;6.096;2024-03-23T06:01:55;4.20;99.90
43043;DHT22;28667;50.758;6.096;2024-03-23T06:04:20;4.20;99.90
43043;DHT22;28667;50.758;6.096;2024-03-23T06:06:49;4.20;99.90
43043;DHT22;28667;50.758;6.096;2024-03-23T06:09:15;4.20;99.90
43043;DHT22;28667;50.758;6.096;2024-03-23T06:11:40;4.20;99.90
43043;DHT22;28667;50.758;6.096;2024-03-23T06:14:06;4.20;99.90
43043;DHT22;28667;50.758;6.096;2024-03-23T06:16:32;4.20;99.90
43043;DHT22;28667;50.758;6.096;2024-03-23T06:18:57;4.20;99.90
43043;DHT22;28667;50.758;6.096;2024-03-23T06:21:24;4.30;99.90
43043;DHT22;28667;50.758;6.096;2024-03-23T06:23:53;4.30;99.90
43043;DHT22;28667;50.758;6.096;2024-03-23T06:26:19;4.30;99.90
43043;DHT22;28667;50.758;6.096;2024-03-23T06:28:46;4.40;99.90
43043;DHT22;28667;50.758;6.096;2024-03-23T06:31:12;4.40;99.90
43043;DHT22;28667;50.758;6.096;2024-03-23T06:33:38;4.50;99.90
43043;DHT22;28667;50.758;6.096;2024-03-23T06:36:05;4.50;99.90
43043;DHT22;28667;50.758;6.096;2024-03-23T06:38:31;4.60;99.90
43043;DHT22;28667;50.758;6.096;2024-03-23T06:40:57;4.60;99.90
43043;DHT22;28667;50.758;6.096;2024-03-23T06:43:23;4.70;99.90
43043;DHT22;28667;50.758;6.096;2024-03-23T06:45:53;4.70;99.90
43043;DHT22;28667;50.758;6.096;2024-03-23T06:48:19;4.80;99.90
43043;DHT22;28667;50.758;6.096;2024-03-23T06:50:45;4.90;99.90
43043;DHT22;28667;50.758;6.096;2024-03-23T06:53:14;4.90;99.90
43043;DHT22;28667;50.758;6.096;2024-03-23T06:55:40;4.90;99.90
43043;DHT22;28667;50.758;6.096;2024-03-23T06:58:07;5.00;99.90
43043;DHT22;28667;50.758;6.096;2024-03-23T07:00:33;5.00;99.90
43043;DHT22;28667;50.758;6.096;2024-03-23T07:02:59;5.00;99.90
43043;DHT22;28667;50.758;6.096;2024-03-23T07:05:25;5.10;99.90
43043;DHT22;28667;50.758;6.096;2024-03-23T07:07:51;5.20;99.90
43043;DHT22;28667;50.758;6.096;2024-03-23T07:10:17;5.30;99.90
43043;DHT22;28667;50.758;6.096;2024-03-23T07:12:43;5.50;99.90
43043;DHT22;28667;50.758;6.096;2024-03-23T07:15:09;5.60;99.90
43043;DHT22;28667;50.758;6.096;2024-03-23T07:17:35;5.70;99.90
43043;DHT22;28667;50.758;6.096;2024-03-23T07:20:04;5.70;99.90
43043;DHT22;28667;50.758;6.096;2024-03-23T07:22:33;5.70;99.90
43043;DHT22;28667;50.758;6.096;2024-03-23T07:25:02;5.70;99.90
43043;DHT22;28667;50.758;6.096;2024-03-23T07:27:28;5.60;99.90
43043;DHT22;28667;50.758;6.096;2024-03-23T07:29:54;5.70;99.90
43043;DHT22;28667;50.758;6.096;2024-03-23T07:32:20;5.70;99.90
43043;DHT22;28667;50.758;6.096;2024-03-23T07:34:46;5.70;99.90
43043;DHT22;28667;50.758;6.096;2024-03-23T07:37:12;5.80;99.90
43043;DHT22;28667;50.758;6.096;2024-03-23T07:39:37;5.80;99.90
43043;DHT22;28667;50.758;6.096;2024-03-23T07:42:04;5.80;99.90
43043;DHT22;28667;50.758;6.096;2024-03-23T07:44:30;5.70;99.90
43043;DHT22;28667;50.758;6.096;2024-03-23T07:46:56;5.80;99.90
43043;DHT22;28667;50.758;6.096;2024-03-23T07:49:22;5.80;99.90
43043;DHT22;28667;50.758;6.096;2024-03-23T07:51:48;5.80;99.90
43043;DHT22;28667;50.758;6.096;2024-03-23T07:54:13;5.90;99.90
43043;DHT22;28667;50.758;6.096;2024-03-23T07:56:39;5.90;99.90
43043;DHT22;28667;50.758;6.096;2024-03-23T07:59:05;6.00;99.90
43043;DHT22;28667;50.758;6.096;2024-03-23T08:01:30;6.00;99.90
43043;DHT22;28667;50.758;6.096;2024-03-23T08:03:56;6.10;99.90
43043;DHT22;28667;50.758;6.096;2024-03-23T08:06:22;6.30;99.90
43043;DHT22;28667;50.758;6.096;2024-03-23T08:08:53;6.50;99.90
43043;DHT22;28667;50.758;6.096;2024-03-23T08:11:28;6.60;99.90
43043;DHT22;28667;50.758;6.096;2024-03-23T08:13:55;6.80;99.90
43043;DHT22;28667;50.758;6.096;2024-03-23T08:16:21;6.90;99.90
43043;DHT22;28667;50.758;6.096;2024-03-23T08:18:47;6.90;99.90
43043;DHT22;28667;50.758;6.096;2024-03-23T08:21:13;7.00;99.90
43043;DHT22;28667;50.758;6.096;2024-03-23T08:23:39;7.00;99.90
43043;DHT22;28667;50.758;6.096;2024-03-23T08:26:06;7.00;99.90
43043;DHT22;28667;50.758;6.096;2024-03-23T08:28:32;7.00;99.90
43043;DHT22;28667;50.758;6.096;2024-03-23T08:31:01;7.00;99.90
43043;DHT22;28667;50.758;6.096;2024-03-23T08:33:28;7.10;99.90
43043;DHT22;28667;50.758;6.096;2024-03-23T08:35:55;7.10;99.90
43043;DHT22;28667;50.758;6.096;2024-03-23T08:38:24;7.20;99.90
43043;DHT22;28667;50.758;6.096;2024-03-23T08:41:03;7.20;99.90
43043;DHT22;28667;50.758;6.096;2024-03-23T08:43:31;7.10;99.90
43043;DHT22;28667;50.758;6.096;2024-03-23T08:46:10;7.20;99.90
43043;DHT22;28667;50.758;6.096;2024-03-23T08:48:40;7.30;99.90
43043;DHT22;28667;50.758;6.096;2024-03-23T08:51:09;7.30;99.90
43043;DHT22;28667;50.758;6.096;2024-03-23T08:53:36;7.30;99.90
43043;DHT22;28667;50.758;6.096;2024-03-23T08:56:03;7.40;99.90
43043;DHT22;28667;50.758;6.096;2024-03-23T08:58:30;7.50;99.90
43043;DHT22;28667;50.758;6.096;2024-03-23T09:01:03;7.60;99.90
43043;DHT22;28667;50.758;6.096;2024-03-23T09:03:29;7.50;99.90
43043;DHT22;28667;50.758;6.096;2024-03-23T09:05:55;7.40;99.90
43043;DHT22;28667;50.758;6.096;2024-03-23T09:08:21;7.20;99.90
43043;DHT22;28667;50.758;6.096;2024-03-23T09:10:47;7.10;99.90
43043;DHT22;28667;50.758;6.096;2024-03-23T09:13:13;7.00;99.90
43043;DHT22;28667;50.758;6.096;2024-03-23T09:15:47;6.90;99.90
43043;DHT22;28667;50.758;6.096;2024-03-23T09:18:13;6.90;99.90
43043;DHT22;28667;50.758;6.096;2024-03-23T09:20:38;6.90;99.90
43043;DHT22;28667;50.758;6.096;2024-03-23T09:23:04;6.90;99.90
43043;DHT22;28667;50.758;6.096;2024-03-23T09:25:30;6.80;99.90
43043;DHT22;28667;50.758;6.096;2024-03-23T09:27:55;6.60;99.90
43043;DHT22;28667;50.758;6.096;2024-03-23T09:30:21;6.40;99.90
43043;DHT22;28667;50.758;6.096;2024-03-23T09:32:48;6.30;99.90
43043;DHT22;28667;50.758;6.096;2024-03-23T09:35:14;6.20;99.90
43043;DHT22;28667;50.758;6.096;2024-03-23T09:37:39;6.20;99.90
43043;DHT22;28667;50.758;6.096;2024-03-23T09:40:09;6.10;99.90
43043;DHT22;28667;50.758;6.096;2024-03-23T09:42:36;6.20;99.90
43043;DHT22;28667;50.758;6.096;2024-03-23T09:45:02;6.20;99.90
43043;DHT22;28667;50.758;6.096;2024-03-23T09:47:28;6.20;99.90
43043;DHT22;28667;50.758;6.096;2024-03-23T09:49:54;6.20;99.90
43043;DHT22;28667;50.758;6.096;2024-03-23T09:52:20;6.20;99.90
43043;DHT22;28667;50.758;6.096;2024-03-23T09:54:46;6.10;99.90
43043;DHT22;28667;50.758;6.096;2024-03-23T09:57:11;6.00;99.90
43043;DHT22;28667;50.758;6.096;2024-03-23T09:59:37;6.00;99.90
43043;DHT22;28667;50.758;6.096;2024-03-23T10:02:04;5.90;99.90
43043;DHT22;28667;50.758;6.096;2024-03-23T10:04:40;5.90;99.90
43043;DHT22;28667;50.758;6.096;2024-03-23T10:07:18;5.90;99.90
43043;DHT22;28667;50.758;6.096;2024-03-23T10:09:45;5.90;99.90
43043;DHT22;28667;50.758;6.096;2024-03-23T10:12:14;5.90;99.90
43043;DHT22;28667;50.758;6.096;2024-03-23T10:14:40;6.00;99.90
43043;DHT22;28667;50.758;6.096;2024-03-23T10:17:14;6.20;99.90
43043;DHT22;28667;50.758;6.096;2024-03-23T10:19:47;6.40;99.90
43043;DHT22;28667;50.758;6.096;2024-03-23T10:22:19;6.50;99.90
43043;DHT22;28667;50.758;6.096;2024-03-23T10:24:45;6.50;99.90
43043;DHT22;28667;50.758;6.096;2024-03-23T10:27:19;6.50;99.90
43043;DHT22;28667;50.758;6.096;2024-03-23T10:29:49;6.60;99.90
43043;DHT22;28667;50.758;6.096;2024-03-23T10:32:18;6.70;99.90
43043;DHT22;28667;50.758;6.096;2024-03-23T10:34:44;6.80;99.90
43043;DHT22;28667;50.758;6.096;2024-03-23T10:37:10;7.00;99.90
43043;DHT22;28667;50.758;6.096;2024-03-23T10:39:39;7.10;99.90
43043;DHT22;28667;50.758;6.096;2024-03-23T10:42:06;7.30;99.90
43043;DHT22;28667;50.758;6.096;2024-03-23T10:44:34;7.40;99.90
43043;DHT22;28667;50.758;6.096;2024-03-23T10:47:01;7.60;99.90
43043;DHT22;28667;50.758;6.096;2024-03-23T10:49:29;7.70;99.90
43043;DHT22;28667;50.758;6.096;2024-03-23T10:52:04;7.60;99.90
43043;DHT22;28667;50.758;6.096;2024-03-23T10:54:32;7.60;99.90
43043;DHT22;28667;50.758;6.096;2024-03-23T10:57:41;7.60;99.90
43043;DHT22;28667;50.758;6.096;2024-03-23T11:00:08;7.60;99.90
43043;DHT22;28667;50.758;6.096;2024-03-23T11:02:36;7.60;99.90
43043;DHT22;28667;50.758;6.096;2024-03-23T11:05:02;7.70;99.90
43043;DHT22;28667;50.758;6.096;2024-03-23T11:07:49;7.70;99.90
43043;DHT22;28667;50.758;6.096;2024-03-23T11:10:29;7.70;99.90
43043;DHT22;28667;50.758;6.096;2024-03-23T11:15:43;7.70;99.90
43043;DHT22;28667;50.758;6.096;2024-03-23T11:18:08;7.80;99.90
43043;DHT22;28667;50.758;6.096;2024-03-23T11:20:35;7.80;99.90
43043;DHT22;28667;50.758;6.096;2024-03-23T11:23:02;7.90;99.90
43043;DHT22;28667;50.758;6.096;2024-03-23T11:25:28;8.00;99.90
43043;DHT22;28667;50.758;6.096;2024-03-23T11:28:10;8.10;99.90
43043;DHT22;28667;50.758;6.096;2024-03-23T11:30:36;8.10;99.90
43043;DHT22;28667;50.758;6.096;2024-03-23T11:33:03;8.10;99.90
43043;DHT22;28667;50.758;6.096;2024-03-23T11:35:34;8.10;99.90
43043;DHT22;28667;50.758;6.096;2024-03-23T11:38:15;8.20;99.90
43043;DHT22;28667;50.758;6.096;2024-03-23T11:40:45;8.20;99.90
43043;DHT22;28667;50.758;6.096;2024-03-23T11:43:13;8.30;99.90
43043;DHT22;28667;50.758;6.096;2024-03-23T11:45:50;8.30;99.90
43043;DHT22;28667;50.758;6.096;2024-03-23T11:48:21;8.20;99.90
43043;DHT22;28667;50.758;6.096;2024-03-23T11:50:54;8.20;99.90
43043;DHT22;28667;50.758;6.096;2024-03-23T11:53:24;8.30;99.90
43043;DHT22;28667;50.758;6.096;2024-03-23T11:58:20;8.80;99.90
43043;DHT22;28667;50.758;6.096;2024-03-23T12:01:02;9.00;99.90
43043;DHT22;28667;50.758;6.096;2024-03-23T12:03:30;9.20;99.90
43043;DHT22;28667;50.758;6.096;2024-03-23T12:05:58;9.20;99.90
43043;DHT22;28667;50.758;6.096;2024-03-23T12:08:30;9.10;99.90
43043;DHT22;28667;50.758;6.096;2024-03-23T12:13:37;8.90;99.90
43043;DHT22;28667;50.758;6.096;2024-03-23T12:18:37;8.80;99.90
43043;DHT22;28667;50.758;6.096;2024-03-23T12:21:04;8.80;99.90
43043;DHT22;28667;50.758;6.096;2024-03-23T12:23:29;8.80;99.90
43043;DHT22;28667;50.758;6.096;2024-03-23T12:25:55;8.90;99.90
43043;DHT22;28667;50.758;6.096;2024-03-23T12:28:21;9.10;99.90
43043;DHT22;28667;50.758;6.096;2024-03-23T12:30:46;9.20;99.90
43043;DHT22;28667;50.758;6.096;2024-03-23T12:33:12;9.30;99.90
43043;DHT22;28667;50.758;6.096;2024-03-23T12:35:38;9.50;99.90
43043;DHT22;28667;50.758;6.096;2024-03-23T12:38:04;9.60;99.80
43043;DHT22;28667;50.758;6.096;2024-03-23T12:40:30;9.80;99.40
43043;DHT22;28667;50.758;6.096;2024-03-23T12:42:56;9.90;99.00
43043;DHT22;28667;50.758;6.096;2024-03-23T12:45:22;9.90;99.10
43043;DHT22;28667;50.758;6.096;2024-03-23T12:47:48;9.90;99.00
43043;DHT22;28667;50.758;6.096;2024-03-23T12:50:14;10.00;99.40
43043;DHT22;28667;50.758;6.096;2024-03-23T12:52:40;10.00;99.40
43043;DHT22;28667;50.758;6.096;2024-03-23T12:55:06;10.00;97.90
43043;DHT22;28667;50.758;6.096;2024-03-23T12:57:32;9.90;98.30
43043;DHT22;28667;50.758;6.096;2024-03-23T12:59:59;9.90;99.60
43043;DHT22;28667;50.758;6.096;2024-03-23T13:02:25;9.90;98.60
43043;DHT22;28667;50.758;6.096;2024-03-23T13:04:54;10.10;98.60
43043;DHT22;28667;50.758;6.096;2024-03-23T13:07:21;10.30;98.40
43043;DHT22;28667;50.758;6.096;2024-03-23T13:09:47;10.50;96.90
43043;DHT22;28667;50.758;6.096;2024-03-23T13:12:13;10.70;96.50
43043;DHT22;28667;50.758;6.096;2024-03-23T13:14:39;10.70;96.00
43043;DHT22;28667;50.758;6.096;2024-03-23T13:17:05;10.60;96.10
43043;DHT22;28667;50.758;6.096;2024-03-23T13:19:31;10.70;95.90
43043;DHT22;28667;50.758;6.096;2024-03-23T13:21:57;10.70;95.40
43043;DHT22;28667;50.758;6.096;2024-03-23T13:24:30;10.50;96.10
43043;DHT22;28667;50.758;6.096;2024-03-23T13:26:56;10.20;97.70
43043;DHT22;28667;50.758;6.096;2024-03-23T13:29:23;10.00;99.90
43043;DHT22;28667;50.758;6.096;2024-03-23T13:31:50;9.60;99.90
43043;DHT22;28667;50.758;6.096;2024-03-23T13:34:17;9.30;99.90
43043;DHT22;28667;50.758;6.096;2024-03-23T13:36:46;9.00;99.90
43043;DHT22;28667;50.758;6.096;2024-03-23T13:39:14;8.70;99.90
43043;DHT22;28667;50.758;6.096;2024-03-23T13:41:44;8.60;99.90
43043;DHT22;28667;50.758;6.096;2024-03-23T13:44:12;8.60;99.90
43043;DHT22;28667;50.758;6.096;2024-03-23T13:46:38;8.50;99.90
43043;DHT22;28667;50.758;6.096;2024-03-23T13:49:05;8.40;99.90
43043;DHT22;28667;50.758;6.096;2024-03-23T13:51:32;8.40;99.90
43043;DHT22;28667;50.758;6.096;2024-03-23T13:53:57;8.40;99.90
43043;DHT22;28667;50.758;6.096;2024-03-23T13:56:27;8.40;99.90
43043;DHT22;28667;50.758;6.096;2024-03-23T13:58:55;8.30;99.90
43043;DHT22;28667;50.758;6.096;2024-03-23T14:01:22;8.10;99.90
43043;DHT22;28667;50.758;6.096;2024-03-23T14:03:47;8.10;99.90
43043;DHT22;28667;50.758;6.096;2024-03-23T14:06:13;8.10;99.90
43043;DHT22;28667;50.758;6.096;2024-03-23T14:08:39;8.20;99.90
43043;DHT22;28667;50.758;6.096;2024-03-23T14:11:08;8.30;99.90
43043;DHT22;28667;50.758;6.096;2024-03-23T14:13:35;8.50;99.90
43043;DHT22;28667;50.758;6.096;2024-03-23T14:16:01;8.70;99.90
43043;DHT22;28667;50.758;6.096;2024-03-23T14:18:27;8.90;99.90
43043;DHT22;28667;50.758;6.096;2024-03-23T14:20:57;8.90;99.90
43043;DHT22;28667;50.758;6.096;2024-03-23T14:23:27;8.80;99.90
43043;DHT22;28667;50.758;6.096;2024-03-23T14:25:56;8.80;99.90
43043;DHT22;28667;50.758;6.096;2024-03-23T14:28:23;8.70;99.90
43043;DHT22;28667;50.758;6.096;2024-03-23T14:30:50;8.70;99.90
43043;DHT22;28667;50.758;6.096;2024-03-23T14:33:16;8.80;99.90
43043;DHT22;28667;50.758;6.096;2024-03-23T14:35:43;8.90;99.90
43043;DHT22;28667;50.758;6.096;2024-03-23T14:38:09;9.00;99.90
43043;DHT22;28667;50.758;6.096;2024-03-23T14:40:35;9.20;99.90
43043;DHT22;28667;50.758;6.096;2024-03-23T14:43:01;9.20;99.90
43043;DHT22;28667;50.758;6.096;2024-03-23T14:45:28;9.30;99.90
43043;DHT22;28667;50.758;6.096;2024-03-23T14:47:53;9.40;99.90
43043;DHT22;28667;50.758;6.096;2024-03-23T14:50:19;9.40;99.90
43043;DHT22;28667;50.758;6.096;2024-03-23T14:52:47;9.30;99.90
43043;DHT22;28667;50.758;6.096;2024-03-23T14:55:13;9.20;99.90
43043;DHT22;28667;50.758;6.096;2024-03-23T14:57:39;9.10;99.90
43043;DHT22;28667;50.758;6.096;2024-03-23T15:00:09;9.10;99.90
43043;DHT22;28667;50.758;6.096;2024-03-23T15:02:39;9.10;99.50
43043;DHT22;28667;50.758;6.096;2024-03-23T15:05:06;9.00;98.80
43043;DHT22;28667;50.758;6.096;2024-03-23T15:07:36;8.80;98.80
43043;DHT22;28667;50.758;6.096;2024-03-23T15:10:05;8.60;99.40
43043;DHT22;28667;50.758;6.096;2024-03-23T15:12:31;8.50;99.90
43043;DHT22;28667;50.758;6.096;2024-03-23T15:14:59;8.50;99.90
43043;DHT22;28667;50.758;6.096;2024-03-23T15:17:26;8.50;99.90
43043;DHT22;28667;50.758;6.096;2024-03-23T15:19:51;8.40;99.90
43043;DHT22;28667;50.758;6.096;2024-03-23T15:22:19;8.30;99.90
43043;DHT22;28667;50.758;6.096;2024-03-23T15:24:46;8.20;99.90
43043;DHT22;28667;50.758;6.096;2024-03-23T15:27:11;8.10;99.90
43043;DHT22;28667;50.758;6.096;2024-03-23T15:29:37;8.00;99.90
43043;DHT22;28667;50.758;6.096;2024-03-23T15:32:04;7.90;99.90
43043;DHT22;28667;50.758;6.096;2024-03-23T15:34:29;7.70;99.90
43043;DHT22;28667;50.758;6.096;2024-03-23T15:36:55;7.50;99.90
43043;DHT22;28667;50.758;6.096;2024-03-23T15:39:21;7.20;99.90
43043;DHT22;28667;50.758;6.096;2024-03-23T15:41:49;6.90;99.90
43043;DHT22;28667;50.758;6.096;2024-03-23T15:44:15;6.70;99.90
43043;DHT22;28667;50.758;6.096;2024-03-23T15:46:41;6.50;99.90
43043;DHT22;28667;50.758;6.096;2024-03-23T15:49:07;6.40;99.90
43043;DHT22;28667;50.758;6.096;2024-03-23T15:51:32;6.40;99.90
43043;DHT22;28667;50.758;6.096;2024-03-23T15:54:00;6.40;99.90
43043;DHT22;28667;50.758;6.096;2024-03-23T15:56:26;6.40;99.90
43043;DHT22;28667;50.758;6.096;2024-03-23T15:58:52;6.40;99.90
43043;DHT22;28667;50.758;6.096;2024-03-23T16:01:18;6.50;99.90
43043;DHT22;28667;50.758;6.096;2024-03-23T16:03:43;6.60;99.90
43043;DHT22;28667;50.758;6.096;2024-03-23T16:06:09;6.70;99.90
43043;DHT22;28667;50.758;6.096;2024-03-23T16:08:35;6.70;99.90
43043;DHT22;28667;50.758;6.096;2024-03-23T16:11:06;6.70;99.90
43043;DHT22;28667;50.758;6.096;2024-03-23T16:13:33;6.70;99.90
43043;DHT22;28667;50.758;6.096;2024-03-23T16:16:03;6.70;99.90
43043;DHT22;28667;50.758;6.096;2024-03-23T16:18:32;6.80;99.90
43043;DHT22;28667;50.758;6.096;2024-03-23T16:21:03;6.80;99.90
43043;DHT22;28667;50.758;6.096;2024-03-23T16:23:29;6.70;99.90
43043;DHT22;28667;50.758;6.096;2024-03-23T16:25:56;6.60;99.90
43043;DHT22;28667;50.758;6.096;2024-03-23T16:28:28;6.60;99.90
43043;DHT22;28667;50.758;6.096;2024-03-23T16:30:59;6.60;99.90
43043;DHT22;28667;50.758;6.096;2024-03-23T16:33:26;6.60;99.90
43043;DHT22;28667;50.758;6.096;2024-03-23T16:38:21;6.60;99.90
43043;DHT22;28667;50.758;6.096;2024-03-23T16:41:01;6.80;99.90
43043;DHT22;28667;50.758;6.096;2024-03-23T16:43:27;6.80;99.90
43043;DHT22;28667;50.758;6.096;2024-03-23T16:45:55;6.80;99.90
43043;DHT22;28667;50.758;6.096;2024-03-23T16:48:25;6.80;99.90
43043;DHT22;28667;50.758;6.096;2024-03-23T16:50:52;6.80;99.90
43043;DHT22;28667;50.758;6.096;2024-03-23T16:53:18;6.70;99.90